KCHD/CHD METAR and TAF weather

Enter ICAO airport designator
Station Type Date Time Source
KCHD METAR 2019/08/21 21:47 UTC NOAA

KCHD 212147Z 24005KT 10SM SCT100 44/00 A2971


Station Type Date Time Source
KCHD Decoded METAR 2019/08/21 21:47 UTC NOAA

Station name not available
Aug 21, 2019 - 05:47 PM EDT / 2019.08.21 2147 UTC
Wind: from the WSW (240 degrees) at 6 MPH (5 KT):0
Visibility: 10 mile(s):0
Sky conditions: partly cloudy
Temperature: 111 F (44 C)
Dew Point: 32 F (0 C)
Relative Humidity: 6%
Pressure (altimeter): 29.71 in. Hg (1006 hPa)
ob: KCHD 212147Z 24005KT 10SM SCT100 44/00 A2971
cycle: 22

Station Type Date Time Source
KCHD TAF UTC NOAA

Error!

Example: see airport list